createdAt,value
2018-06-03T00:00:51.873Z,13.66
2018-06-03T00:01:51.862Z,13.66
2018-06-03T00:02:51.834Z,13.66
2018-06-03T00:03:51.764Z,13.52
2018-06-03T00:04:51.764Z,13.46
2018-06-03T00:05:51.704Z,13.41
2018-06-03T00:06:51.677Z,13.28
2018-06-03T00:07:51.626Z,13.38
2018-06-03T00:08:51.595Z,13.29
2018-06-03T00:09:51.568Z,13.41
2018-06-03T00:10:51.555Z,13.38
2018-06-03T00:11:51.554Z,13.23
2018-06-03T00:12:51.466Z,13.25
2018-06-03T00:13:51.429Z,13.17
2018-06-03T00:14:51.397Z,13.20
2018-06-03T00:15:51.351Z,13.15
2018-06-03T00:16:51.327Z,13.04
2018-06-03T00:17:51.292Z,13.22
2018-06-03T00:18:51.278Z,13.26
2018-06-03T00:19:51.280Z,13.36
2018-06-03T00:20:51.175Z,13.38
2018-06-03T00:21:51.163Z,13.28
2018-06-03T00:22:51.118Z,13.25
2018-06-03T00:23:51.073Z,13.15
2018-06-03T00:24:51.066Z,13.15
2018-06-03T00:25:51.045Z,13.17
2018-06-03T00:26:51.005Z,13.20
2018-06-03T00:27:50.950Z,13.14
2018-06-03T00:28:50.900Z,13.30
2018-06-03T00:29:50.891Z,13.26
2018-06-03T00:30:50.861Z,13.28
2018-06-03T00:31:50.854Z,13.17
2018-06-03T00:32:51.499Z,13.08
2018-06-03T00:33:50.718Z,13.12
2018-06-03T00:34:50.684Z,13.17
2018-06-03T00:35:50.648Z,13.08
2018-06-03T00:36:50.632Z,13.12
2018-06-03T00:37:50.599Z,13.15
2018-06-03T00:38:50.588Z,13.19
2018-06-03T00:39:50.508Z,13.17
2018-06-03T00:40:50.494Z,13.05
2018-06-03T00:41:50.500Z,13.04
2018-06-03T00:42:50.407Z,13.08
2018-06-03T00:43:50.388Z,13.03
2018-06-03T00:44:50.336Z,13.03
2018-06-03T00:45:50.319Z,13.17
2018-06-03T00:46:50.292Z,13.29
2018-06-03T00:47:50.263Z,13.45
2018-06-03T00:48:50.216Z,13.52
2018-06-03T00:49:50.195Z,13.60
2018-06-03T00:50:50.202Z,13.45
2018-06-03T00:51:50.118Z,13.30
2018-06-03T00:52:50.110Z,13.14
2018-06-03T00:53:50.099Z,13.11
2018-06-03T00:54:50.025Z,13.10
2018-06-03T00:55:49.978Z,13.00
2018-06-03T00:56:49.967Z,12.93
2018-06-03T00:57:49.912Z,12.89
2018-06-03T00:58:49.857Z,12.90
2018-06-03T00:59:49.868Z,12.95
2018-06-03T01:00:49.791Z,12.96
2018-06-03T01:01:49.742Z,12.86
2018-06-03T01:02:49.731Z,12.75
2018-06-03T01:03:49.698Z,12.64
2018-06-03T01:04:49.699Z,12.65
2018-06-03T01:05:49.657Z,12.65
2018-06-03T01:06:49.574Z,12.62
2018-06-03T01:07:49.543Z,12.45
2018-06-03T01:08:49.529Z,12.64
2018-06-03T01:09:49.508Z,12.68
2018-06-03T01:10:49.499Z,12.87
2018-06-03T01:11:49.389Z,12.97
2018-06-03T01:12:49.392Z,13.04
2018-06-03T01:13:49.344Z,13.17
2018-06-03T01:14:49.304Z,13.05
2018-06-03T01:15:49.260Z,13.03
2018-06-03T01:16:49.255Z,13.01
2018-06-03T01:17:49.216Z,12.93
2018-06-03T01:18:49.150Z,12.85
2018-06-03T01:19:49.145Z,12.85
2018-06-03T01:20:49.088Z,12.85
2018-06-03T01:21:49.063Z,12.74
2018-06-03T01:22:49.055Z,12.79
2018-06-03T01:23:48.968Z,12.89
2018-06-03T01:24:48.957Z,12.82
2018-06-03T01:25:48.937Z,12.62
2018-06-03T01:26:48.911Z,12.57
2018-06-03T01:27:48.889Z,12.50
2018-06-03T01:28:48.803Z,12.62
2018-06-03T01:29:48.769Z,12.57
2018-06-03T01:30:48.803Z,12.45
2018-06-03T01:31:48.711Z,12.38
2018-06-03T01:32:48.647Z,12.28
2018-06-03T01:33:48.624Z,12.19
2018-06-03T01:34:48.624Z,12.13
2018-06-03T01:35:48.563Z,12.02
2018-06-03T01:36:48.507Z,12.20
2018-06-03T01:37:48.482Z,12.24
2018-06-03T01:38:48.448Z,12.47
2018-06-03T01:39:48.419Z,12.38
2018-06-03T01:40:48.389Z,12.19
2018-06-03T01:41:48.344Z,12.09
2018-06-03T01:42:48.328Z,12.01
2018-06-03T01:43:48.311Z,12.01
2018-06-03T01:44:48.259Z,12.17
2018-06-03T01:45:48.197Z,11.99
2018-06-03T01:46:48.157Z,12.05
2018-06-03T01:47:48.125Z,11.94
2018-06-03T01:48:48.098Z,11.96
2018-06-03T01:49:48.057Z,11.91
2018-06-03T01:50:48.034Z,11.91
2018-06-03T01:51:48.000Z,12.05
2018-06-03T01:52:47.943Z,12.13
2018-06-03T01:53:47.933Z,12.04
2018-06-03T01:54:47.877Z,12.02
2018-06-03T01:55:47.846Z,11.80
2018-06-03T01:56:47.835Z,11.67
2018-06-03T01:57:47.757Z,11.67
2018-06-03T01:58:47.741Z,11.65
2018-06-03T01:59:47.715Z,11.70
2018-06-03T02:00:47.676Z,11.60
2018-06-03T02:01:47.649Z,11.62
2018-06-03T02:02:47.612Z,11.79
2018-06-03T02:03:47.558Z,11.94
2018-06-03T02:04:47.528Z,11.98
2018-06-03T02:05:47.500Z,11.88
2018-06-03T02:06:47.445Z,11.86
2018-06-03T02:07:47.406Z,11.72
2018-06-03T02:08:47.367Z,11.88
2018-06-03T02:09:47.344Z,12.04
2018-06-03T02:10:47.323Z,11.80
2018-06-03T02:11:47.261Z,11.73
2018-06-03T02:12:47.242Z,11.73
2018-06-03T02:13:47.233Z,11.91
2018-06-03T02:14:47.155Z,12.07
2018-06-03T02:15:47.177Z,11.94
2018-06-03T02:16:47.128Z,11.91
2018-06-03T02:17:47.093Z,11.90
2018-06-03T02:18:47.028Z,11.96
2018-06-03T02:19:47.017Z,11.94
2018-06-03T02:20:46.943Z,11.94
2018-06-03T02:21:46.998Z,12.09
2018-06-03T02:22:46.925Z,11.91
2018-06-03T02:23:46.902Z,11.80
2018-06-03T02:24:46.831Z,11.73
2018-06-03T02:25:46.809Z,11.76
2018-06-03T02:26:46.787Z,11.67
2018-06-03T02:27:46.724Z,11.64
2018-06-03T02:28:46.688Z,11.60
2018-06-03T02:29:46.687Z,11.64
2018-06-03T02:30:46.615Z,11.79
2018-06-03T02:31:46.561Z,11.85
2018-06-03T02:32:46.555Z,11.86
2018-06-03T02:33:46.526Z,11.94
2018-06-03T02:34:46.501Z,11.88
2018-06-03T02:35:46.492Z,11.82
2018-06-03T02:36:46.456Z,11.73
2018-06-03T02:37:46.417Z,11.64
2018-06-03T02:38:46.387Z,11.62
2018-06-03T02:39:46.261Z,11.55
2018-06-03T02:40:46.248Z,11.51
2018-06-03T02:41:46.224Z,11.46
2018-06-03T02:42:46.215Z,11.46
2018-06-03T02:43:46.161Z,11.62
2018-06-03T02:44:46.102Z,11.65
2018-06-03T02:45:46.083Z,11.79
2018-06-03T02:46:46.048Z,11.79
2018-06-03T02:47:46.016Z,11.62
2018-06-03T02:48:45.986Z,11.58
2018-06-03T02:49:45.925Z,11.64
2018-06-03T02:50:45.944Z,11.55
2018-06-03T02:51:45.867Z,11.55
2018-06-03T02:52:45.831Z,11.47
2018-06-03T02:53:45.813Z,11.42
2018-06-03T02:54:45.757Z,11.28
2018-06-03T02:55:45.686Z,11.24
2018-06-03T02:56:45.684Z,11.28
2018-06-03T02:57:45.628Z,11.54
2018-06-03T02:58:45.590Z,11.73
2018-06-03T02:59:45.570Z,11.94
2018-06-03T03:00:45.523Z,12.01
2018-06-03T03:01:45.494Z,12.01
2018-06-03T03:02:45.504Z,11.91
2018-06-03T03:03:45.476Z,11.91
2018-06-03T03:04:45.427Z,11.95
2018-06-03T03:05:45.375Z,11.96
2018-06-03T03:06:45.329Z,11.88
2018-06-03T03:07:45.280Z,11.80
2018-06-03T03:08:46.048Z,11.76
2018-06-03T03:09:45.180Z,11.86
2018-06-03T03:10:45.148Z,12.04
2018-06-03T03:11:45.168Z,12.13
2018-06-03T03:12:45.126Z,12.10
2018-06-03T03:13:45.120Z,11.88
2018-06-03T03:14:45.044Z,11.69
2018-06-03T03:15:45.042Z,11.73
2018-06-03T03:16:44.965Z,11.80
2018-06-03T03:17:44.915Z,11.83
2018-06-03T03:18:44.897Z,11.80
2018-06-03T03:19:44.865Z,11.88
2018-06-03T03:20:44.810Z,11.91
2018-06-03T03:21:44.809Z,12.02
2018-06-03T03:22:44.773Z,12.01
2018-06-03T03:23:44.748Z,12.10
2018-06-03T03:24:44.692Z,11.99
2018-06-03T03:25:44.632Z,11.83
2018-06-03T03:26:44.569Z,11.94
2018-06-03T03:27:44.556Z,11.94
2018-06-03T03:28:44.539Z,11.94
2018-06-03T03:29:44.472Z,11.86
2018-06-03T03:30:44.487Z,12.07
2018-06-03T03:31:44.437Z,12.05
2018-06-03T03:32:44.381Z,12.05
2018-06-03T03:33:44.326Z,12.04
2018-06-03T03:34:44.338Z,12.05
2018-06-03T03:35:44.331Z,12.02
2018-06-03T03:36:44.247Z,12.05
2018-06-03T03:37:44.212Z,12.14
2018-06-03T03:38:44.151Z,12.04
2018-06-03T03:39:44.136Z,12.09
2018-06-03T03:40:44.077Z,12.17
2018-06-03T03:41:44.114Z,12.16
2018-06-03T03:42:44.001Z,12.02
2018-06-03T03:43:43.972Z,12.05
2018-06-03T03:44:43.924Z,11.96
2018-06-03T03:45:43.927Z,11.90
2018-06-03T03:46:43.850Z,12.02
2018-06-03T03:47:43.842Z,12.05
2018-06-03T03:48:43.819Z,12.05
2018-06-03T03:49:43.782Z,12.12
2018-06-03T03:50:43.733Z,12.13
2018-06-03T03:51:43.715Z,12.21
2018-06-03T03:52:43.709Z,12.21
2018-06-03T03:53:43.606Z,12.16
2018-06-03T03:54:43.577Z,12.23
2018-06-03T03:55:43.514Z,12.27
2018-06-03T03:56:43.574Z,12.39
2018-06-03T03:57:43.479Z,12.41
2018-06-03T03:58:43.421Z,12.42
2018-06-03T03:59:43.385Z,12.45
2018-06-03T04:00:43.382Z,12.42
2018-06-03T04:01:43.296Z,12.39
2018-06-03T04:02:43.277Z,12.41
2018-06-03T04:03:43.315Z,12.50
2018-06-03T04:04:43.247Z,12.46
2018-06-03T04:05:43.179Z,12.74
2018-06-03T04:06:43.162Z,12.79
2018-06-03T04:07:43.139Z,12.90
2018-06-03T04:08:43.070Z,13.08
2018-06-03T04:09:43.103Z,13.19
2018-06-03T04:10:42.983Z,13.28
2018-06-03T04:11:43.034Z,13.36
2018-06-03T04:12:42.934Z,13.57
2018-06-03T04:13:42.891Z,13.57
2018-06-03T04:14:42.841Z,13.63
2018-06-03T04:15:43.533Z,13.71
2018-06-03T04:16:42.788Z,13.81
2018-06-03T04:17:42.749Z,13.67
2018-06-03T04:18:42.690Z,13.79
2018-06-03T04:19:42.681Z,13.82
2018-06-03T04:20:42.711Z,13.88
2018-06-03T04:21:42.601Z,14.04
2018-06-03T04:22:42.606Z,14.10
2018-06-03T04:23:42.515Z,14.17
2018-06-03T04:24:42.523Z,14.17
2018-06-03T04:25:42.473Z,14.09
2018-06-03T04:26:42.427Z,14.04
2018-06-03T04:27:42.399Z,14.03
2018-06-03T04:28:42.358Z,14.15
2018-06-03T04:29:42.325Z,14.27
2018-06-03T04:30:42.296Z,14.46
2018-06-03T04:31:42.256Z,14.84
2018-06-03T04:32:42.240Z,15.01
2018-06-03T04:33:42.196Z,15.17
2018-06-03T04:34:42.167Z,15.25
2018-06-03T04:35:42.137Z,15.36
2018-06-03T04:36:42.095Z,15.51
2018-06-03T04:37:42.045Z,15.75
2018-06-03T04:38:42.038Z,15.83
2018-06-03T04:39:41.976Z,15.59
2018-06-03T04:40:41.957Z,15.27
2018-06-03T04:41:41.909Z,15.38
2018-06-03T04:42:41.933Z,15.43
2018-06-03T04:43:41.829Z,15.67
2018-06-03T04:44:41.802Z,15.75
2018-06-03T04:45:41.771Z,16.24
2018-06-03T04:46:41.744Z,16.57
2018-06-03T04:47:41.715Z,16.85
2018-06-03T04:48:41.662Z,17.08
2018-06-03T04:49:41.675Z,16.81
2018-06-03T04:50:42.574Z,16.45
2018-06-03T04:51:41.595Z,16.35
2018-06-03T04:52:41.573Z,16.25
2018-06-03T04:53:41.492Z,16.28
2018-06-03T04:54:41.487Z,16.53
2018-06-03T04:55:41.448Z,16.78
2018-06-03T04:56:41.414Z,16.70
2018-06-03T04:57:41.369Z,16.63
2018-06-03T04:58:41.363Z,16.43
2018-06-03T04:59:41.319Z,16.25
2018-06-03T05:00:41.275Z,16.70
2018-06-03T05:01:41.298Z,16.96
2018-06-03T05:02:41.213Z,17.30
2018-06-03T05:03:42.082Z,17.62
2018-06-03T05:04:41.200Z,18.11
2018-06-03T05:05:41.140Z,18.57
2018-06-03T05:06:41.141Z,18.94
2018-06-03T05:07:41.091Z,19.43
2018-06-03T05:08:41.105Z,19.11
2018-06-03T05:09:41.020Z,18.32
2018-06-03T05:10:40.974Z,17.75
2018-06-03T05:11:40.978Z,17.49
2018-06-03T05:12:40.981Z,17.75
2018-06-03T05:13:40.885Z,17.72
2018-06-03T05:14:40.836Z,17.93
2018-06-03T05:15:40.864Z,18.25
2018-06-03T05:16:40.839Z,18.48
2018-06-03T05:17:40.790Z,18.51
2018-06-03T05:18:40.820Z,18.84
2018-06-03T05:19:40.715Z,19.44
2018-06-03T05:20:40.681Z,19.86
2018-06-03T05:21:40.733Z,20.29
2018-06-03T05:22:40.616Z,20.74
2018-06-03T05:23:40.575Z,21.14
2018-06-03T05:24:40.549Z,21.54
2018-06-03T05:25:40.529Z,21.27
2018-06-03T05:26:40.510Z,21.28
2018-06-03T05:27:40.488Z,20.70
2018-06-03T05:28:40.446Z,19.66
2018-06-03T05:29:40.442Z,19.19
2018-06-03T05:30:40.436Z,18.85
2018-06-03T05:31:40.345Z,19.28
2018-06-03T05:32:40.361Z,19.77
2018-06-03T05:33:40.290Z,20.13
2018-06-03T05:34:40.314Z,20.43
2018-06-03T05:35:40.235Z,20.33
2018-06-03T05:36:40.236Z,19.47
2018-06-03T05:37:40.182Z,18.91
2018-06-03T05:38:40.149Z,18.72
2018-06-03T05:39:40.128Z,18.36
2018-06-03T05:40:40.106Z,17.89
2018-06-03T05:41:40.080Z,17.87
2018-06-03T05:42:40.073Z,17.86
2018-06-03T05:43:40.019Z,17.90
2018-06-03T05:44:39.997Z,17.75
2018-06-03T05:45:39.976Z,17.75
2018-06-03T05:46:39.946Z,17.81
2018-06-03T05:47:39.913Z,17.77
2018-06-03T05:48:39.913Z,17.82
2018-06-03T05:49:39.857Z,17.81
2018-06-03T05:50:39.832Z,18.02
2018-06-03T05:51:39.799Z,17.99
2018-06-03T05:52:39.770Z,18.10
2018-06-03T05:53:39.741Z,18.27
2018-06-03T05:54:39.699Z,18.25
2018-06-03T05:55:39.745Z,18.25
2018-06-03T05:56:39.676Z,18.27
2018-06-03T05:57:39.736Z,18.32
2018-06-03T05:58:39.609Z,18.27
2018-06-03T05:59:39.571Z,18.27
2018-06-03T06:00:39.562Z,18.32
2018-06-03T06:01:39.551Z,18.39
2018-06-03T06:02:39.490Z,18.58
2018-06-03T06:03:39.501Z,18.57
2018-06-03T06:04:39.449Z,18.54
2018-06-03T06:05:39.421Z,18.69
2018-06-03T06:06:39.399Z,18.94
2018-06-03T06:07:39.360Z,19.10
2018-06-03T06:08:39.320Z,19.21
2018-06-03T06:09:39.318Z,19.13
2018-06-03T06:10:39.269Z,19.08
2018-06-03T06:11:39.269Z,19.40
2018-06-03T06:12:39.258Z,19.63
2018-06-03T06:13:39.167Z,20.10
2018-06-03T06:14:39.175Z,20.01
2018-06-03T06:15:39.115Z,19.92
2018-06-03T06:16:39.095Z,19.77
2018-06-03T06:17:39.063Z,19.63
2018-06-03T06:18:39.056Z,19.51
2018-06-03T06:19:39.012Z,19.32
2018-06-03T06:20:38.989Z,19.40
2018-06-03T06:21:38.955Z,19.41
2018-06-03T06:22:38.914Z,19.39
2018-06-03T06:23:38.898Z,19.36
2018-06-03T06:24:38.852Z,19.25
2018-06-03T06:25:38.822Z,19.61
2018-06-03T06:26:38.784Z,20.01
2018-06-03T06:27:38.765Z,20.38
2018-06-03T06:28:38.728Z,20.06
2018-06-03T06:29:38.714Z,20.39
2018-06-03T06:30:38.682Z,20.47
2018-06-03T06:31:38.723Z,20.50
2018-06-03T06:32:38.621Z,20.38
2018-06-03T06:33:38.594Z,20.55
2018-06-03T06:34:38.566Z,20.57
2018-06-03T06:35:38.544Z,20.59
2018-06-03T06:36:38.542Z,20.35
2018-06-03T06:37:38.478Z,20.61
2018-06-03T06:38:38.518Z,20.69
2018-06-03T06:39:38.410Z,20.80
2018-06-03T06:40:38.396Z,20.99
2018-06-03T06:41:38.426Z,21.19
2018-06-03T06:42:38.347Z,20.79
2018-06-03T06:43:38.329Z,20.61
2018-06-03T06:44:38.279Z,20.89
2018-06-03T06:45:38.256Z,21.10
2018-06-03T06:46:38.228Z,20.94
2018-06-03T06:47:38.219Z,20.62
2018-06-03T06:48:38.225Z,20.95
2018-06-03T06:49:38.182Z,21.16
2018-06-03T06:50:38.113Z,21.01
2018-06-03T06:51:38.111Z,21.35
2018-06-03T06:52:38.106Z,21.90
2018-06-03T06:53:38.035Z,23.05
2018-06-03T06:54:38.029Z,24.20
2018-06-03T06:55:37.996Z,25.05
2018-06-03T06:56:37.956Z,25.57
2018-06-03T06:57:37.927Z,24.85
2018-06-03T06:58:37.892Z,24.43
2018-06-03T06:59:37.934Z,24.96
2018-06-03T07:00:37.858Z,24.93
2018-06-03T07:01:37.844Z,24.45
2018-06-03T07:02:37.793Z,24.50
2018-06-03T07:03:37.765Z,23.78
2018-06-03T07:04:37.736Z,23.32
2018-06-03T07:05:37.721Z,23.19
2018-06-03T07:06:37.696Z,23.39
2018-06-03T07:07:37.664Z,23.76
2018-06-03T07:08:37.656Z,24.40
2018-06-03T07:09:37.607Z,24.42
2018-06-03T07:10:37.613Z,23.83
2018-06-03T07:11:37.550Z,24.76
2018-06-03T07:12:37.538Z,25.50
2018-06-03T07:13:37.548Z,25.72
2018-06-03T07:14:37.488Z,25.30
2018-06-03T07:15:37.464Z,24.73
2018-06-03T07:16:37.419Z,24.25
2018-06-03T07:17:37.410Z,24.91
2018-06-03T07:18:37.374Z,24.40
2018-06-03T07:19:37.378Z,25.10
2018-06-03T07:20:37.335Z,26.12
2018-06-03T07:21:37.329Z,26.72
2018-06-03T07:22:37.291Z,27.04
2018-06-03T07:23:37.288Z,26.13
2018-06-03T07:24:37.228Z,26.40
2018-06-03T07:25:37.238Z,25.69
2018-06-03T07:26:37.302Z,26.23
2018-06-03T07:27:37.158Z,25.62
2018-06-03T07:28:37.173Z,24.18
2018-06-03T07:29:37.126Z,23.80
2018-06-03T07:30:37.158Z,22.58
2018-06-03T07:31:37.072Z,22.52
2018-06-03T07:32:37.039Z,23.43
2018-06-03T07:33:37.027Z,25.24
2018-06-03T07:34:37.016Z,25.99
2018-06-03T07:35:36.985Z,25.65
2018-06-03T07:36:36.967Z,23.58
2018-06-03T07:37:36.964Z,22.45
2018-06-03T07:38:36.923Z,22.05
2018-06-03T07:39:36.908Z,22.14
2018-06-03T07:40:36.865Z,22.91
2018-06-03T07:41:36.856Z,24.57
2018-06-03T07:42:36.829Z,25.43
2018-06-03T07:43:36.831Z,26.13
2018-06-03T07:44:36.793Z,27.55
2018-06-03T07:45:36.781Z,28.30
2018-06-03T07:46:36.756Z,28.40
2018-06-03T07:47:36.742Z,27.12
2018-06-03T07:48:36.736Z,26.43
2018-06-03T07:49:36.714Z,26.50
2018-06-03T07:50:36.663Z,26.91
2018-06-03T07:51:36.762Z,27.09
2018-06-03T07:52:36.609Z,27.04
2018-06-03T07:53:36.737Z,26.60
2018-06-03T07:54:36.575Z,26.85
2018-06-03T07:55:36.571Z,26.37
2018-06-03T07:56:36.540Z,26.43
2018-06-03T07:57:36.519Z,27.70
2018-06-03T07:58:36.492Z,28.04
2018-06-03T07:59:36.480Z,27.22
2018-06-03T08:00:36.447Z,27.74
2018-06-03T08:01:36.429Z,28.71
2018-06-03T08:02:36.416Z,28.06
2018-06-03T08:03:36.410Z,26.84
2018-06-03T08:04:36.384Z,27.84
2018-06-03T08:05:36.361Z,26.88
2018-06-03T08:06:36.353Z,26.23
2018-06-03T08:07:36.313Z,25.76
2018-06-03T08:08:36.276Z,25.02
2018-06-03T08:09:36.271Z,24.25
2018-06-03T08:10:36.233Z,22.65
2018-06-03T08:11:36.241Z,22.51
2018-06-03T08:12:36.215Z,22.46
2018-06-03T08:13:36.204Z,22.61
2018-06-03T08:14:36.164Z,22.88
2018-06-03T08:15:36.149Z,23.01
2018-06-03T08:16:36.137Z,22.79
2018-06-03T08:17:36.187Z,22.80
2018-06-03T08:18:36.085Z,24.20
2018-06-03T08:19:36.070Z,25.05
2018-06-03T08:20:36.065Z,25.87
2018-06-03T08:21:36.053Z,26.72
2018-06-03T08:22:36.014Z,27.17
2018-06-03T08:23:36.020Z,27.10
2018-06-03T08:24:35.962Z,26.75
2018-06-03T08:25:35.928Z,27.10
2018-06-03T08:26:35.913Z,26.84
2018-06-03T08:27:35.911Z,26.62
2018-06-03T08:28:35.880Z,25.00
2018-06-03T08:29:35.874Z,25.28
2018-06-03T08:30:35.820Z,24.50
2018-06-03T08:31:35.835Z,24.10
2018-06-03T08:32:35.771Z,24.57
2018-06-03T08:33:35.805Z,24.99
2018-06-03T08:34:35.747Z,25.20
2018-06-03T08:35:35.731Z,25.03
2018-06-03T08:36:35.714Z,25.95
2018-06-03T08:37:35.697Z,26.81
2018-06-03T08:38:35.721Z,26.23
2018-06-03T08:39:35.629Z,26.75
2018-06-03T08:40:35.636Z,25.17
2018-06-03T08:41:35.575Z,24.43
2018-06-03T08:42:35.558Z,24.05
2018-06-03T08:43:35.535Z,24.42
2018-06-03T08:44:35.523Z,24.87
2018-06-03T08:45:35.493Z,24.77
2018-06-03T08:46:35.474Z,24.45
2018-06-03T08:47:35.452Z,24.10
2018-06-03T08:48:35.494Z,24.22
2018-06-03T08:49:35.407Z,24.53
2018-06-03T08:50:35.414Z,24.67
2018-06-03T08:51:35.379Z,25.64
2018-06-03T08:52:35.362Z,26.76
2018-06-03T08:53:35.344Z,27.88
2018-06-03T08:54:35.301Z,27.69
2018-06-03T08:55:35.290Z,26.25
2018-06-03T08:56:35.357Z,25.24
2018-06-03T08:57:35.224Z,26.26
2018-06-03T08:58:35.219Z,25.85
2018-06-03T08:59:35.201Z,26.20
2018-06-03T09:00:35.157Z,25.92
2018-06-03T09:01:35.155Z,25.87
2018-06-03T09:02:35.137Z,24.62
2018-06-03T09:03:35.113Z,24.15
2018-06-03T09:04:35.081Z,24.55
2018-06-03T09:05:35.068Z,24.20
2018-06-03T09:06:35.054Z,24.47
2018-06-03T09:07:35.032Z,24.43
2018-06-03T09:08:34.984Z,24.40
2018-06-03T09:09:34.966Z,24.53
2018-06-03T09:10:35.011Z,24.73
2018-06-03T09:11:34.983Z,24.67
2018-06-03T09:12:34.927Z,24.45
2018-06-03T09:13:34.989Z,24.42
2018-06-03T09:14:34.916Z,24.22
2018-06-03T09:15:34.837Z,24.57
2018-06-03T09:16:34.881Z,24.88
2018-06-03T09:17:34.822Z,24.69
2018-06-03T09:18:35.699Z,24.43
2018-06-03T09:19:34.775Z,24.43
2018-06-03T09:20:34.757Z,24.35
2018-06-03T09:21:34.729Z,24.13
2018-06-03T09:22:34.693Z,24.37
2018-06-03T09:23:34.647Z,24.34
2018-06-03T09:24:34.654Z,25.00
2018-06-03T09:25:34.644Z,25.43
2018-06-03T09:26:37.023Z,25.99
2018-06-03T09:27:34.592Z,26.12
2018-06-03T09:29:27.915Z,26.57
2018-06-03T09:30:27.753Z,26.60
2018-06-03T09:32:21.266Z,26.40
2018-06-03T09:33:21.185Z,25.94
2018-06-03T09:35:27.757Z,25.65
2018-06-03T09:36:27.452Z,25.52
2018-06-03T09:38:20.770Z,25.51
2018-06-03T09:39:20.474Z,25.40
2018-06-03T09:41:13.691Z,26.33
2018-06-03T09:42:13.546Z,26.52
2018-06-03T09:44:06.880Z,26.10
2018-06-03T09:45:06.726Z,25.99
2018-06-03T09:46:59.959Z,25.18
2018-06-03T09:47:59.718Z,25.03
2018-06-03T09:49:52.984Z,25.80
2018-06-03T09:50:52.816Z,26.12
2018-06-03T09:52:46.571Z,24.85
2018-06-03T09:53:46.308Z,25.42
2018-06-03T09:54:46.316Z,26.10
2018-06-03T09:55:46.279Z,26.69
2018-06-03T09:56:46.222Z,26.43
2018-06-03T09:57:46.247Z,26.12
2018-06-03T09:58:46.194Z,26.26
2018-06-03T09:59:46.170Z,27.06
2018-06-03T10:00:46.164Z,27.47
2018-06-03T10:01:46.132Z,27.67
2018-06-03T10:02:46.145Z,26.09
2018-06-03T10:03:46.090Z,26.12
2018-06-03T10:04:46.044Z,26.23
2018-06-03T10:05:46.067Z,26.67
2018-06-03T10:06:46.004Z,26.94
2018-06-03T10:07:46.046Z,26.85
2018-06-03T10:08:46.049Z,26.80
2018-06-03T10:09:46.003Z,27.44
2018-06-03T10:10:45.959Z,27.84
2018-06-03T10:11:45.889Z,28.52
2018-06-03T10:12:45.894Z,28.36
2018-06-03T10:13:45.856Z,28.27
2018-06-03T10:14:45.858Z,28.18
2018-06-03T10:15:45.855Z,27.34
2018-06-03T10:16:45.853Z,26.84
2018-06-03T10:17:45.776Z,27.36
2018-06-03T10:18:45.773Z,28.24
2018-06-03T10:19:45.757Z,29.09
2018-06-03T10:20:46.604Z,29.86
2018-06-03T10:21:45.698Z,30.57
2018-06-03T10:22:45.680Z,31.01
2018-06-03T10:23:45.657Z,30.20
2018-06-03T10:24:45.652Z,28.77
2018-06-03T10:25:45.604Z,27.39
2018-06-03T10:26:45.673Z,27.10
2018-06-03T10:27:45.561Z,26.47
2018-06-03T10:28:45.566Z,26.57
2018-06-03T10:29:45.537Z,26.29
2018-06-03T10:30:45.511Z,25.47
2018-06-03T10:31:45.480Z,25.25
2018-06-03T10:32:45.464Z,25.43
2018-06-03T10:33:45.515Z,24.99
2018-06-03T10:34:45.412Z,25.18
2018-06-03T10:35:45.387Z,24.64
2018-06-03T10:36:45.384Z,24.42
2018-06-03T10:37:45.347Z,24.10
2018-06-03T10:38:45.336Z,23.94
2018-06-03T10:39:45.306Z,24.16
2018-06-03T10:40:45.307Z,24.28
2018-06-03T10:41:45.268Z,25.03
2018-06-03T10:42:45.242Z,25.03
2018-06-03T10:43:45.272Z,25.18
2018-06-03T10:44:45.203Z,25.40
2018-06-03T10:45:45.220Z,25.85
2018-06-03T10:46:45.187Z,25.99
2018-06-03T10:47:45.146Z,26.17
2018-06-03T10:48:45.109Z,26.50
2018-06-03T10:49:45.109Z,26.40
2018-06-03T10:50:45.146Z,27.06
2018-06-03T10:51:45.090Z,27.17
2018-06-03T10:52:45.319Z,27.66
2018-06-03T10:53:45.004Z,26.09
2018-06-03T10:54:45.012Z,25.85
2018-06-03T10:55:44.964Z,26.18
2018-06-03T10:56:44.944Z,26.30
2018-06-03T10:57:44.923Z,26.55
2018-06-03T10:58:44.911Z,26.75
2018-06-03T10:59:44.875Z,28.33
2018-06-03T11:00:45.046Z,28.18
2018-06-03T11:01:44.873Z,27.97
2018-06-03T11:02:44.837Z,27.54
2018-06-03T11:03:44.784Z,27.85
2018-06-03T11:04:44.836Z,26.57
2018-06-03T11:05:44.756Z,25.73
2018-06-03T11:06:44.765Z,25.55
2018-06-03T11:07:44.699Z,25.52
2018-06-03T11:08:44.796Z,24.87
2018-06-03T11:09:44.661Z,24.50
2018-06-03T11:10:44.645Z,24.57
2018-06-03T11:11:44.700Z,24.39
2018-06-03T11:12:44.581Z,24.06
2018-06-03T11:13:44.568Z,24.32
2018-06-03T11:14:44.543Z,25.43
2018-06-03T11:15:44.580Z,26.21
2018-06-03T11:16:44.642Z,26.30
2018-06-03T11:17:44.501Z,26.70
2018-06-03T11:18:44.457Z,27.44
2018-06-03T11:19:44.470Z,27.84
2018-06-03T11:20:44.423Z,28.17
2018-06-03T11:21:44.399Z,28.36
2018-06-03T11:22:44.381Z,28.29
2018-06-03T11:23:44.359Z,28.04
2018-06-03T11:24:44.374Z,28.68
2018-06-03T11:25:44.317Z,29.09
2018-06-03T11:26:44.458Z,29.27
2018-06-03T11:27:44.254Z,29.79
2018-06-03T11:28:44.240Z,30.01
2018-06-03T11:29:44.297Z,30.27
2018-06-03T11:30:44.250Z,29.89
2018-06-03T11:31:44.171Z,30.16
2018-06-03T11:32:44.165Z,30.45
2018-06-03T11:33:44.149Z,30.77
2018-06-03T11:34:44.132Z,30.13
2018-06-03T11:35:44.092Z,30.53
2018-06-03T11:36:44.069Z,30.00
2018-06-03T11:37:44.042Z,29.52
2018-06-03T11:38:44.031Z,28.92
2018-06-03T11:39:44.011Z,28.64
2018-06-03T11:40:43.995Z,28.89
2018-06-03T11:41:43.962Z,28.78
2018-06-03T11:42:43.949Z,28.54
2018-06-03T11:43:43.964Z,27.99
2018-06-03T11:44:43.938Z,27.28
2018-06-03T11:45:43.893Z,26.69
2018-06-03T11:46:43.930Z,26.07
2018-06-03T11:47:43.867Z,25.83
2018-06-03T11:48:43.858Z,25.55
2018-06-03T11:49:43.809Z,25.82
2018-06-03T11:50:43.816Z,26.67
2018-06-03T11:51:43.767Z,26.52
2018-06-03T11:52:43.762Z,26.84
2018-06-03T11:53:43.759Z,26.50
2018-06-03T11:54:43.718Z,26.25
2018-06-03T11:55:43.695Z,26.99
2018-06-03T11:56:43.673Z,27.94
2018-06-03T11:57:43.733Z,27.99
2018-06-03T11:58:43.653Z,28.00
2018-06-03T11:59:43.598Z,28.22
2018-06-03T12:00:43.607Z,28.00
2018-06-03T12:01:43.630Z,28.29
2018-06-03T12:02:43.566Z,26.87
2018-06-03T12:03:43.546Z,27.29
2018-06-03T12:04:43.526Z,27.75
2018-06-03T12:05:43.496Z,27.78
2018-06-03T12:06:43.463Z,27.50
2018-06-03T12:07:43.505Z,27.13
2018-06-03T12:08:43.445Z,26.73
2018-06-03T12:09:43.410Z,26.73
2018-06-03T12:10:43.392Z,26.52
2018-06-03T12:11:43.404Z,27.13
2018-06-03T12:12:43.390Z,27.88
2018-06-03T12:13:43.344Z,28.49
2018-06-03T12:14:43.317Z,29.00
2018-06-03T12:15:43.338Z,28.25
2018-06-03T12:16:43.276Z,27.09
2018-06-03T12:17:43.262Z,27.13
2018-06-03T12:18:43.225Z,27.31
2018-06-03T12:19:43.254Z,27.14
2018-06-03T12:20:43.194Z,26.81
2018-06-03T12:21:43.170Z,27.66
2018-06-03T12:22:43.141Z,27.62
2018-06-03T12:23:43.150Z,28.48
2018-06-03T12:24:43.131Z,28.93
2018-06-03T12:25:43.107Z,29.39
2018-06-03T12:26:43.091Z,29.85
2018-06-03T12:27:43.063Z,30.13
2018-06-03T12:28:43.100Z,30.55
2018-06-03T12:29:43.003Z,29.83
2018-06-03T12:30:43.054Z,29.86
2018-06-03T12:31:43.025Z,29.11
2018-06-03T12:32:42.980Z,27.43
2018-06-03T12:33:42.925Z,26.65
2018-06-03T12:34:42.938Z,25.87
2018-06-03T12:35:42.923Z,26.09
2018-06-03T12:36:42.890Z,26.67
2018-06-03T12:37:42.851Z,27.17
2018-06-03T12:38:42.848Z,27.40
2018-06-03T12:39:42.811Z,27.62
2018-06-03T12:40:42.799Z,27.82
2018-06-03T12:41:42.794Z,27.27
2018-06-03T12:42:42.786Z,27.09
2018-06-03T12:43:42.738Z,27.29
2018-06-03T12:44:42.738Z,27.75
2018-06-03T12:45:42.755Z,27.22
2018-06-03T12:46:42.775Z,26.75
2018-06-03T12:47:42.669Z,26.25
2018-06-03T12:48:42.652Z,26.65
2018-06-03T12:49:42.629Z,26.84
2018-06-03T12:50:42.609Z,27.72
2018-06-03T12:51:42.632Z,28.43
2018-06-03T12:52:42.579Z,28.33
2018-06-03T12:53:42.535Z,28.49
2018-06-03T12:54:42.588Z,28.76
2018-06-03T12:55:42.502Z,29.11
2018-06-03T12:56:42.472Z,29.23
2018-06-03T12:57:42.479Z,28.68
2018-06-03T12:58:42.442Z,29.26
2018-06-03T12:59:42.429Z,28.88
2018-06-03T13:00:42.406Z,27.54